Weather History for KMVE - November, 2013

Change the Weather History Date:

Wednesday, November 6, 2013

  Actual Average Record
Temperature  
Mean Temperature 34 °F -  
Max Temperature 44 °F 46 °F 69 °F (1950)
Min Temperature 24 °F 27 °F 1 °F (1959)
Degree Days  
Heating Degree Days 31    
Moisture  
Dew Point 27 °F    
Average Humidity 76    
Maximum Humidity 100    
Minimum Humidity 46    
Precipitation  
Precipitation 0.00 in - - ()
Sea Level Pressure  
Sea Level Pressure 30.13 in    
Wind  
Wind Speed 6 mph (WNW)    
Max Wind Speed 15 mph    
Max Gust Speed 21 mph    
Visibility 10 miles    
Events      
Averages and records for this station are not official NWS values.
T = Trace of Precipitation, MM = Missing Value Source: NWS Daily Summary

Daily Weather History Graph

Daily Weather History Graph

Search for Another Location

Airport or City:

Trip Planner

Search our weather history database for the weather conditions in past years. The results will help you decide how hot, cold, wet, or windy it might be!

Date:

Astronomy

Nov. 06, 2013 Rise Set
Actual Time 7:08 AM CST 5:03 PM CST
Civil Twilight 6:37 AM CST 5:34 PM CST
Nautical Twilight 6:02 AM CST 6:09 PM CST
Astronomical Twilight 5:28 AM CST 6:44 PM CST
Moon 10:28 AM CST (11/6) 8:05 PM CST (11/6)
Length of Visible Light 10h 57m
Length of Day
9h 55m
Waxing Crescent, 14% of the Moon is Illuminated
Nov 6
Waxing Crescent
Nov 9
First Quarter
Nov 17
Full
Nov 25
Last Quarter
Dec 2
New

Hourly Weather History & Observations

Time (CST) Temp. Windchill Dew Point Humidity Pressure Visibility Wind Dir Wind Speed Gust Speed Precip Events Conditions
12:14 AM 32.0 °F 26.4 °F 26.6 °F 80% 30.10 in 10.0 mi North 5.8 mph - N/A   Overcast
12:34 AM 32.0 °F 26.4 °F 26.6 °F 80% 30.11 in 10.0 mi NNW 5.8 mph - N/A   Overcast
12:54 AM 32.0 °F 27.5 °F 26.6 °F 80% 30.10 in 10.0 mi NNW 4.6 mph - N/A   Overcast
1:14 AM 32.0 °F 28.7 °F 26.6 °F 80% 30.11 in 10.0 mi NW 3.5 mph - N/A   Overcast
1:34 AM 32.0 °F 28.7 °F 26.6 °F 80% 30.11 in 10.0 mi NNW 3.5 mph - N/A   Overcast
1:54 AM 32.0 °F 28.7 °F 26.6 °F 80% 30.11 in 10.0 mi NNW 3.5 mph - N/A   Overcast
2:14 AM 32.0 °F 28.7 °F 26.6 °F 80% 30.11 in 10.0 mi NNW 3.5 mph - N/A   Overcast
2:33 AM 32.0 °F 28.7 °F 26.6 °F 80% 30.11 in 10.0 mi NW 3.5 mph - N/A   Overcast
2:54 AM 30.2 °F 26.7 °F 26.6 °F 86% 30.11 in 10.0 mi NNW 3.5 mph - N/A   Mostly Cloudy
3:14 AM 30.2 °F 25.4 °F 26.6 °F 86% 30.11 in 10.0 mi NNW 4.6 mph - N/A   Mostly Cloudy
3:34 AM 30.2 °F 26.7 °F 26.6 °F 86% 30.10 in 10.0 mi NNW 3.5 mph - N/A   Mostly Cloudy
3:53 AM 30.2 °F 26.7 °F 26.6 °F 86% 30.11 in 10.0 mi NW 3.5 mph - N/A   Scattered Clouds
4:14 AM 30.2 °F 26.7 °F 24.8 °F 80% 30.10 in 10.0 mi NNW 3.5 mph - N/A   Clear
4:34 AM 28.4 °F 22.2 °F 24.8 °F 86% 30.11 in 10.0 mi NW 5.8 mph - N/A   Clear
4:54 AM 28.4 °F 22.2 °F 24.8 °F 86% 30.11 in 10.0 mi NNW 5.8 mph - N/A   Clear
5:14 AM 28.4 °F 22.2 °F 24.8 °F 86% 30.11 in 10.0 mi NNW 5.8 mph - N/A   Clear
5:34 AM 28.4 °F 23.3 °F 23.0 °F 80% 30.11 in 10.0 mi NNW 4.6 mph - N/A   Clear
5:54 AM 28.4 °F 23.3 °F 23.0 °F 80% 30.11 in 10.0 mi NW 4.6 mph - N/A   Clear
6:14 AM 26.6 °F 19.1 °F 23.0 °F 86% 30.12 in 10.0 mi NW 6.9 mph - N/A   Clear
6:34 AM 26.6 °F 20.0 °F 23.0 °F 86% 30.11 in 10.0 mi NW 5.8 mph - N/A   Clear
6:54 AM 26.6 °F 20.0 °F 23.0 °F 86% 30.11 in 10.0 mi NW 5.8 mph - N/A   Clear
7:14 AM 24.8 °F 17.9 °F 23.0 °F 93% 30.11 in 10.0 mi NW 5.8 mph - N/A   Clear
7:34 AM 24.8 °F 17.9 °F 23.0 °F 93% 30.12 in 10.0 mi NW 5.8 mph - N/A   Clear
7:54 AM 26.6 °F 19.1 °F 23.0 °F 86% 30.13 in 10.0 mi NW 6.9 mph - N/A   Clear
8:14 AM 26.6 °F 19.1 °F 23.0 °F 86% 30.13 in 10.0 mi NW 6.9 mph - N/A   Clear
8:34 AM 28.4 °F 21.2 °F 24.8 °F 86% 30.13 in 10.0 mi NW 6.9 mph - N/A   Clear
8:54 AM 28.4 °F 22.2 °F 24.8 °F 86% 30.14 in 10.0 mi NNW 5.8 mph - N/A   Clear
9:13 AM 30.2 °F 25.4 °F 24.8 °F 80% 30.14 in 10.0 mi NW 4.6 mph - N/A   Clear
9:34 AM 32.0 °F 25.6 °F 24.8 °F 75% 30.14 in 10.0 mi NNW 6.9 mph - N/A   Clear
9:54 AM 33.8 °F 27.7 °F 24.8 °F 70% 30.14 in 10.0 mi NW 6.9 mph - N/A   Clear
10:14 AM 35.6 °F 30.7 °F 24.8 °F 65% 30.14 in 10.0 mi NNW 5.8 mph - N/A   Clear
10:34 AM 37.4 °F 32.8 °F 24.8 °F 60% 30.14 in 10.0 mi NW 5.8 mph - N/A   Clear
10:54 AM 37.4 °F 31.4 °F 24.8 °F 60% 30.14 in 10.0 mi NW 8.1 mph - N/A   Clear
11:13 AM 39.2 °F 33.6 °F 23.0 °F 52% 30.14 in 10.0 mi NNW 8.1 mph - N/A   Clear
11:34 AM 39.2 °F 33.6 °F 24.8 °F 56% 30.14 in 10.0 mi North 8.1 mph - N/A   Clear
11:54 AM 41.0 °F 36.4 °F 24.8 °F 53% 30.13 in 10.0 mi WNW 6.9 mph - N/A   Clear
12:13 PM 41.0 °F 36.4 °F 24.8 °F 53% 30.13 in 10.0 mi West 6.9 mph - N/A   Clear
12:34 PM 42.8 °F 37.0 °F 24.8 °F 49% 30.11 in 10.0 mi West 10.4 mph - N/A   Clear
12:54 PM 42.8 °F 36.2 °F 28.4 °F 57% 30.11 in 10.0 mi SW 12.7 mph - N/A   Clear
1:13 PM 41.0 °F 34.7 °F 30.2 °F 65% 30.11 in 10.0 mi SW 10.4 mph - N/A   Clear
1:34 PM 42.8 °F 36.6 °F 30.2 °F 61% 30.11 in 10.0 mi SW 11.5 mph - N/A   Clear
1:54 PM 41.0 °F 35.8 °F 30.2 °F 65% 30.11 in 10.0 mi WSW 8.1 mph - N/A   Scattered Clouds
2:14 PM 42.8 °F 37.0 °F 32.0 °F 66% 30.12 in 10.0 mi SW 10.4 mph - N/A   Scattered Clouds
2:34 PM 42.8 °F 38.6 °F 33.8 °F 70% 30.11 in 10.0 mi SSW 6.9 mph - N/A   Scattered Clouds
2:54 PM 42.8 °F 36.2 °F 33.8 °F 70% 30.10 in 10.0 mi WSW 12.7 mph - N/A   Mostly Cloudy
3:14 PM 42.8 °F 35.8 °F 33.8 °F 70% 30.11 in 10.0 mi WSW 13.8 mph 18.4 mph N/A   Overcast
3:34 PM 42.8 °F 36.6 °F 33.8 °F 70% 30.11 in 10.0 mi West 11.5 mph - N/A   Overcast
3:54 PM 44.6 °F 39.7 °F 24.8 °F 46% 30.11 in 10.0 mi WNW 9.2 mph - N/A   Overcast
4:14 PM 42.8 °F 36.6 °F 24.8 °F 49% 30.11 in 10.0 mi WNW 11.5 mph - N/A   Overcast
4:34 PM 42.8 °F 37.5 °F 26.6 °F 53% 30.11 in 10.0 mi WNW 9.2 mph - N/A   Overcast
4:54 PM 41.0 °F 35.2 °F 26.6 °F 57% 30.11 in 10.0 mi West 9.2 mph - N/A   Overcast
5:14 PM 39.2 °F 33.6 °F 28.4 °F 65% 30.12 in 10.0 mi West 8.1 mph - N/A   Overcast
5:34 PM 37.4 °F 30.8 °F 28.4 °F 70% 30.12 in 10.0 mi West 9.2 mph - N/A   Overcast
5:53 PM 35.6 °F 28.6 °F 28.4 °F 75% 30.13 in 10.0 mi WSW 9.2 mph - N/A   Overcast
6:14 PM 35.6 °F 29.2 °F 28.4 °F 75% 30.13 in 10.0 mi WSW 8.1 mph - N/A   Overcast
6:34 PM 35.6 °F 29.2 °F 28.4 °F 75% 30.13 in 10.0 mi WSW 8.1 mph - N/A   Overcast
6:54 PM 35.6 °F 29.9 °F 28.4 °F 75% 30.13 in 10.0 mi WSW 6.9 mph - N/A   Overcast
7:14 PM 35.6 °F 30.7 °F 28.4 °F 75% 30.15 in 10.0 mi WNW 5.8 mph - N/A   Overcast
7:34 PM 33.8 °F 27.7 °F 26.6 °F 75% 30.16 in 10.0 mi WNW 6.9 mph - N/A   Mostly Cloudy
7:54 PM 33.8 °F 23.9 °F 26.6 °F 75% 30.16 in 10.0 mi WNW 15.0 mph 20.7 mph N/A   Scattered Clouds
8:14 PM 30.2 °F 21.9 °F 26.6 °F 86% 30.17 in 10.0 mi WNW 9.2 mph 19.6 mph N/A   Scattered Clouds
8:34 PM 30.2 °F 24.3 °F 26.6 °F 86% 30.16 in 10.0 mi West 5.8 mph - N/A   Scattered Clouds
8:53 PM 30.2 °F 22.6 °F 26.6 °F 86% 30.16 in 10.0 mi West 8.1 mph - N/A   Clear
9:14 PM 28.4 °F 21.2 °F 26.6 °F 93% 30.17 in 10.0 mi West 6.9 mph - N/A   Clear
9:34 PM 28.4 °F 21.2 °F 28.4 °F 100% 30.17 in 10.0 mi West 6.9 mph - N/A   Clear
9:54 PM 28.4 °F 22.2 °F 26.6 °F 93% 30.17 in 10.0 mi West 5.8 mph - N/A   Clear
10:14 PM 28.4 °F 22.2 °F 26.6 °F 93% 30.18 in 10.0 mi West 5.8 mph - N/A   Clear
10:34 PM 28.4 °F 23.3 °F 26.6 °F 93% 30.18 in 10.0 mi West 4.6 mph - N/A   Clear
10:54 PM 28.4 °F 23.3 °F 26.6 °F 93% 30.17 in 10.0 mi West 4.6 mph - N/A   Clear
11:14 PM 28.4 °F 24.6 °F 26.6 °F 93% 30.18 in 10.0 mi WNW 3.5 mph - N/A   Clear
11:34 PM 28.4 °F 23.3 °F 26.6 °F 93% 30.18 in 10.0 mi WNW 4.6 mph - N/A   Clear
11:54 PM 28.4 °F 22.2 °F 26.6 °F 93% 30.18 in 10.0 mi WNW 5.8 mph - N/A   Clear